sensor_id;sensor_type;location;lat;lon;timestamp;P1;durP1;ratioP1;P2;durP2;ratioP2
30072;SDS011;16897;52.422;13.678;2022-12-07T00:00:00;5.85;;;3.30;;
30072;SDS011;16897;52.422;13.678;2022-12-07T00:04:03;4.75;;;3.85;;
30072;SDS011;16897;52.422;13.678;2022-12-07T00:08:05;5.45;;;3.65;;
30072;SDS011;16897;52.422;13.678;2022-12-07T00:12:07;5.40;;;4.07;;
30072;SDS011;16897;52.422;13.678;2022-12-07T00:16:10;4.57;;;3.55;;
30072;SDS011;16897;52.422;13.678;2022-12-07T00:20:19;5.22;;;3.97;;
30072;SDS011;16897;52.422;13.678;2022-12-07T00:24:21;6.13;;;3.60;;
30072;SDS011;16897;52.422;13.678;2022-12-07T00:28:23;4.70;;;3.55;;
30072;SDS011;16897;52.422;13.678;2022-12-07T00:32:25;5.75;;;4.03;;
30072;SDS011;16897;52.422;13.678;2022-12-07T00:36:27;5.60;;;4.22;;
30072;SDS011;16897;52.422;13.678;2022-12-07T00:40:29;4.93;;;3.70;;
30072;SDS011;16897;52.422;13.678;2022-12-07T00:44:31;6.45;;;4.60;;
30072;SDS011;16897;52.422;13.678;2022-12-07T00:48:33;5.93;;;4.25;;
30072;SDS011;16897;52.422;13.678;2022-12-07T00:52:35;5.47;;;4.03;;
30072;SDS011;16897;52.422;13.678;2022-12-07T00:56:37;7.05;;;4.65;;
30072;SDS011;16897;52.422;13.678;2022-12-07T01:00:39;5.30;;;4.15;;
30072;SDS011;16897;52.422;13.678;2022-12-07T01:04:43;4.55;;;3.58;;
30072;SDS011;16897;52.422;13.678;2022-12-07T01:08:44;5.38;;;4.20;;
30072;SDS011;16897;52.422;13.678;2022-12-07T01:12:46;5.63;;;4.43;;
30072;SDS011;16897;52.422;13.678;2022-12-07T01:16:47;5.78;;;3.83;;
30072;SDS011;16897;52.422;13.678;2022-12-07T01:20:59;4.45;;;3.67;;
30072;SDS011;16897;52.422;13.678;2022-12-07T01:25:04;4.38;;;3.85;;
30072;SDS011;16897;52.422;13.678;2022-12-07T01:29:07;4.53;;;3.33;;
30072;SDS011;16897;52.422;13.678;2022-12-07T01:33:09;3.85;;;3.30;;
30072;SDS011;16897;52.422;13.678;2022-12-07T01:37:11;4.30;;;3.45;;
30072;SDS011;16897;52.422;13.678;2022-12-07T01:41:13;5.13;;;3.75;;
30072;SDS011;16897;52.422;13.678;2022-12-07T01:49:41;3.80;;;3.35;;
30072;SDS011;16897;52.422;13.678;2022-12-07T01:53:48;3.45;;;3.10;;
30072;SDS011;16897;52.422;13.678;2022-12-07T01:57:51;3.67;;;2.67;;
30072;SDS011;16897;52.422;13.678;2022-12-07T02:01:55;3.40;;;2.73;;
30072;SDS011;16897;52.422;13.678;2022-12-07T02:05:57;3.00;;;2.70;;
30072;SDS011;16897;52.422;13.678;2022-12-07T02:14:24;4.00;;;3.25;;
30072;SDS011;16897;52.422;13.678;2022-12-07T02:22:48;3.15;;;2.85;;
30072;SDS011;16897;52.422;13.678;2022-12-07T02:36:46;3.25;;;2.95;;
30072;SDS011;16897;52.422;13.678;2022-12-07T02:41:00;3.13;;;2.83;;
30072;SDS011;16897;52.422;13.678;2022-12-07T02:45:09;3.05;;;2.65;;
30072;SDS011;16897;52.422;13.678;2022-12-07T02:49:13;3.20;;;2.90;;
30072;SDS011;16897;52.422;13.678;2022-12-07T03:07:00;3.28;;;2.67;;
30072;SDS011;16897;52.422;13.678;2022-12-07T03:11:44;3.13;;;2.57;;
30072;SDS011;16897;52.422;13.678;2022-12-07T03:20:41;2.83;;;2.53;;
30072;SDS011;16897;52.422;13.678;2022-12-07T03:24:50;2.87;;;2.63;;
30072;SDS011;16897;52.422;13.678;2022-12-07T03:29:00;2.38;;;2.17;;
30072;SDS011;16897;52.422;13.678;2022-12-07T03:33:18;2.42;;;2.22;;
30072;SDS011;16897;52.422;13.678;2022-12-07T03:37:37;2.50;;;2.30;;
30072;SDS011;16897;52.422;13.678;2022-12-07T03:42:00;2.70;;;2.25;;
30072;SDS011;16897;52.422;13.678;2022-12-07T03:50:49;3.65;;;3.08;;
30072;SDS011;16897;52.422;13.678;2022-12-07T03:55:29;2.30;;;1.98;;
30072;SDS011;16897;52.422;13.678;2022-12-07T03:59:35;3.65;;;3.08;;
30072;SDS011;16897;52.422;13.678;2022-12-07T04:03:38;3.10;;;2.53;;
30072;SDS011;16897;52.422;13.678;2022-12-07T04:07:45;2.90;;;2.65;;
30072;SDS011;16897;52.422;13.678;2022-12-07T04:11:46;3.17;;;2.85;;
30072;SDS011;16897;52.422;13.678;2022-12-07T04:15:49;3.40;;;3.00;;
30072;SDS011;16897;52.422;13.678;2022-12-07T04:19:50;4.78;;;3.03;;
30072;SDS011;16897;52.422;13.678;2022-12-07T04:23:52;5.07;;;3.63;;
30072;SDS011;16897;52.422;13.678;2022-12-07T04:27:53;3.42;;;2.88;;
30072;SDS011;16897;52.422;13.678;2022-12-07T04:31:55;3.95;;;3.35;;
30072;SDS011;16897;52.422;13.678;2022-12-07T04:35:57;5.10;;;3.50;;
30072;SDS011;16897;52.422;13.678;2022-12-07T04:39:59;5.20;;;3.75;;
30072;SDS011;16897;52.422;13.678;2022-12-07T04:44:02;4.43;;;3.78;;
30072;SDS011;16897;52.422;13.678;2022-12-07T04:48:08;6.47;;;3.80;;
30072;SDS011;16897;52.422;13.678;2022-12-07T04:52:09;5.97;;;3.85;;
30072;SDS011;16897;52.422;13.678;2022-12-07T04:56:12;5.22;;;4.07;;
30072;SDS011;16897;52.422;13.678;2022-12-07T05:00:15;7.28;;;3.92;;
30072;SDS011;16897;52.422;13.678;2022-12-07T05:04:17;5.13;;;3.58;;
30072;SDS011;16897;52.422;13.678;2022-12-07T05:08:19;5.53;;;4.45;;
30072;SDS011;16897;52.422;13.678;2022-12-07T05:12:21;6.35;;;4.40;;
30072;SDS011;16897;52.422;13.678;2022-12-07T05:16:23;5.82;;;4.22;;
30072;SDS011;16897;52.422;13.678;2022-12-07T05:20:25;6.32;;;4.25;;
30072;SDS011;16897;52.422;13.678;2022-12-07T05:24:27;5.05;;;3.92;;
30072;SDS011;16897;52.422;13.678;2022-12-07T05:28:29;6.47;;;4.38;;
30072;SDS011;16897;52.422;13.678;2022-12-07T05:32:30;7.22;;;5.03;;
30072;SDS011;16897;52.422;13.678;2022-12-07T05:36:32;8.20;;;5.25;;
30072;SDS011;16897;52.422;13.678;2022-12-07T05:40:34;7.57;;;5.00;;
30072;SDS011;16897;52.422;13.678;2022-12-07T05:44:36;7.65;;;4.85;;
30072;SDS011;16897;52.422;13.678;2022-12-07T05:48:43;7.35;;;5.13;;
30072;SDS011;16897;52.422;13.678;2022-12-07T05:52:44;8.35;;;5.50;;
30072;SDS011;16897;52.422;13.678;2022-12-07T05:56:46;7.63;;;4.85;;
30072;SDS011;16897;52.422;13.678;2022-12-07T06:00:47;9.98;;;5.85;;
30072;SDS011;16897;52.422;13.678;2022-12-07T06:04:49;8.40;;;5.95;;
30072;SDS011;16897;52.422;13.678;2022-12-07T06:08:50;10.70;;;6.20;;
30072;SDS011;16897;52.422;13.678;2022-12-07T06:12:55;8.95;;;6.53;;
30072;SDS011;16897;52.422;13.678;2022-12-07T06:16:57;13.27;;;6.88;;
30072;SDS011;16897;52.422;13.678;2022-12-07T06:21:01;11.05;;;6.70;;
30072;SDS011;16897;52.422;13.678;2022-12-07T06:25:03;9.95;;;6.35;;
30072;SDS011;16897;52.422;13.678;2022-12-07T06:29:05;8.02;;;5.20;;
30072;SDS011;16897;52.422;13.678;2022-12-07T06:33:08;10.48;;;6.35;;
30072;SDS011;16897;52.422;13.678;2022-12-07T06:37:10;11.23;;;7.30;;
30072;SDS011;16897;52.422;13.678;2022-12-07T06:41:11;10.77;;;6.80;;
30072;SDS011;16897;52.422;13.678;2022-12-07T06:45:13;12.10;;;7.53;;
30072;SDS011;16897;52.422;13.678;2022-12-07T06:49:15;9.40;;;6.05;;
30072;SDS011;16897;52.422;13.678;2022-12-07T06:53:17;11.57;;;7.65;;
30072;SDS011;16897;52.422;13.678;2022-12-07T06:57:19;10.68;;;6.32;;
30072;SDS011;16897;52.422;13.678;2022-12-07T07:01:21;9.27;;;6.60;;
30072;SDS011;16897;52.422;13.678;2022-12-07T07:05:22;11.25;;;6.80;;
30072;SDS011;16897;52.422;13.678;2022-12-07T07:09:24;11.07;;;7.05;;
30072;SDS011;16897;52.422;13.678;2022-12-07T07:13:26;11.57;;;6.68;;
30072;SDS011;16897;52.422;13.678;2022-12-07T07:17:28;8.63;;;6.07;;
30072;SDS011;16897;52.422;13.678;2022-12-07T07:21:30;10.77;;;7.00;;
30072;SDS011;16897;52.422;13.678;2022-12-07T07:25:31;11.95;;;6.43;;
30072;SDS011;16897;52.422;13.678;2022-12-07T07:29:33;12.05;;;7.07;;
30072;SDS011;16897;52.422;13.678;2022-12-07T07:33:35;10.73;;;7.03;;
30072;SDS011;16897;52.422;13.678;2022-12-07T07:37:37;8.48;;;6.40;;
30072;SDS011;16897;52.422;13.678;2022-12-07T07:41:39;8.52;;;5.80;;
30072;SDS011;16897;52.422;13.678;2022-12-07T07:45:47;9.32;;;5.85;;
30072;SDS011;16897;52.422;13.678;2022-12-07T07:49:48;10.55;;;6.68;;
30072;SDS011;16897;52.422;13.678;2022-12-07T07:53:50;8.60;;;5.93;;
30072;SDS011;16897;52.422;13.678;2022-12-07T07:57:55;8.50;;;6.20;;
30072;SDS011;16897;52.422;13.678;2022-12-07T08:01:57;9.02;;;6.43;;
30072;SDS011;16897;52.422;13.678;2022-12-07T08:05:58;10.20;;;6.53;;
30072;SDS011;16897;52.422;13.678;2022-12-07T08:10:00;10.70;;;6.53;;
30072;SDS011;16897;52.422;13.678;2022-12-07T08:14:02;9.50;;;6.15;;
30072;SDS011;16897;52.422;13.678;2022-12-07T08:18:04;8.05;;;5.65;;
30072;SDS011;16897;52.422;13.678;2022-12-07T08:22:05;8.77;;;6.32;;
30072;SDS011;16897;52.422;13.678;2022-12-07T08:26:09;8.15;;;5.68;;
30072;SDS011;16897;52.422;13.678;2022-12-07T08:30:14;7.38;;;5.30;;
30072;SDS011;16897;52.422;13.678;2022-12-07T08:34:17;8.20;;;5.05;;
30072;SDS011;16897;52.422;13.678;2022-12-07T08:38:18;7.57;;;5.32;;
30072;SDS011;16897;52.422;13.678;2022-12-07T08:42:20;7.72;;;5.60;;
30072;SDS011;16897;52.422;13.678;2022-12-07T08:46:31;5.78;;;4.05;;
30072;SDS011;16897;52.422;13.678;2022-12-07T08:50:41;4.72;;;3.78;;
30072;SDS011;16897;52.422;13.678;2022-12-07T08:54:43;4.88;;;4.00;;
30072;SDS011;16897;52.422;13.678;2022-12-07T08:58:45;4.68;;;4.03;;
30072;SDS011;16897;52.422;13.678;2022-12-07T09:02:47;3.85;;;3.38;;
30072;SDS011;16897;52.422;13.678;2022-12-07T09:06:48;3.53;;;2.92;;
30072;SDS011;16897;52.422;13.678;2022-12-07T09:10:50;3.58;;;2.80;;
30072;SDS011;16897;52.422;13.678;2022-12-07T09:14:52;2.58;;;2.30;;
30072;SDS011;16897;52.422;13.678;2022-12-07T09:18:54;2.42;;;2.10;;
30072;SDS011;16897;52.422;13.678;2022-12-07T09:22:56;2.10;;;1.90;;
30072;SDS011;16897;52.422;13.678;2022-12-07T09:26:57;1.60;;;1.50;;
30072;SDS011;16897;52.422;13.678;2022-12-07T09:30:59;1.30;;;1.20;;
30072;SDS011;16897;52.422;13.678;2022-12-07T09:35:03;1.20;;;1.20;;
30072;SDS011;16897;52.422;13.678;2022-12-07T09:39:04;1.48;;;1.38;;
30072;SDS011;16897;52.422;13.678;2022-12-07T09:43:11;1.02;;;0.98;;
30072;SDS011;16897;52.422;13.678;2022-12-07T09:47:14;1.40;;;1.30;;
30072;SDS011;16897;52.422;13.678;2022-12-07T09:51:23;1.63;;;1.38;;
30072;SDS011;16897;52.422;13.678;2022-12-07T09:55:27;1.40;;;1.30;;
30072;SDS011;16897;52.422;13.678;2022-12-07T09:59:30;1.08;;;1.08;;
30072;SDS011;16897;52.422;13.678;2022-12-07T10:03:33;1.02;;;1.02;;
30072;SDS011;16897;52.422;13.678;2022-12-07T10:07:39;2.35;;;1.35;;
30072;SDS011;16897;52.422;13.678;2022-12-07T10:16:03;1.50;;;1.38;;
30072;SDS011;16897;52.422;13.678;2022-12-07T10:24:28;1.05;;;1.05;;
30072;SDS011;16897;52.422;13.678;2022-12-07T10:28:33;1.10;;;1.10;;
30072;SDS011;16897;52.422;13.678;2022-12-07T10:32:36;1.23;;;1.13;;
30072;SDS011;16897;52.422;13.678;2022-12-07T10:36:38;1.10;;;1.10;;
30072;SDS011;16897;52.422;13.678;2022-12-07T10:40:40;1.25;;;1.10;;
30072;SDS011;16897;52.422;13.678;2022-12-07T10:44:41;1.20;;;1.10;;
30072;SDS011;16897;52.422;13.678;2022-12-07T11:01:54;1.40;;;1.30;;
30072;SDS011;16897;52.422;13.678;2022-12-07T11:15:17;1.38;;;1.27;;
30072;SDS011;16897;52.422;13.678;2022-12-07T11:19:35;1.50;;;1.40;;
30072;SDS011;16897;52.422;13.678;2022-12-07T11:33:47;1.48;;;1.38;;
30072;SDS011;16897;52.422;13.678;2022-12-07T11:38:09;1.50;;;1.40;;
30072;SDS011;16897;52.422;13.678;2022-12-07T11:42:22;1.60;;;1.50;;
30072;SDS011;16897;52.422;13.678;2022-12-07T11:46:35;2.85;;;1.70;;
30072;SDS011;16897;52.422;13.678;2022-12-07T11:50:52;1.58;;;1.40;;
30072;SDS011;16897;52.422;13.678;2022-12-07T11:54:57;1.48;;;1.38;;
30072;SDS011;16897;52.422;13.678;2022-12-07T11:59:09;1.45;;;1.35;;
30072;SDS011;16897;52.422;13.678;2022-12-07T12:03:33;1.50;;;1.40;;
30072;SDS011;16897;52.422;13.678;2022-12-07T12:07:40;1.65;;;1.55;;
30072;SDS011;16897;52.422;13.678;2022-12-07T12:21:00;2.72;;;1.40;;
30072;SDS011;16897;52.422;13.678;2022-12-07T12:25:42;1.90;;;1.60;;
30072;SDS011;16897;52.422;13.678;2022-12-07T12:29:50;1.80;;;1.70;;
30072;SDS011;16897;52.422;13.678;2022-12-07T12:33:57;3.88;;;1.88;;
30072;SDS011;16897;52.422;13.678;2022-12-07T12:42:42;4.93;;;1.95;;
30072;SDS011;16897;52.422;13.678;2022-12-07T12:51:39;2.22;;;1.48;;
30072;SDS011;16897;52.422;13.678;2022-12-07T13:00:21;2.03;;;1.50;;
30072;SDS011;16897;52.422;13.678;2022-12-07T13:05:02;1.35;;;1.25;;
30072;SDS011;16897;52.422;13.678;2022-12-07T13:09:15;1.45;;;1.35;;
30072;SDS011;16897;52.422;13.678;2022-12-07T13:13:34;1.52;;;1.40;;
30072;SDS011;16897;52.422;13.678;2022-12-07T13:25:48;2.03;;;1.92;;
30072;SDS011;16897;52.422;13.678;2022-12-07T13:30:00;2.15;;;1.30;;
30072;SDS011;16897;52.422;13.678;2022-12-07T13:34:03;2.67;;;1.40;;
30072;SDS011;16897;52.422;13.678;2022-12-07T13:38:30;1.80;;;1.38;;
30072;SDS011;16897;52.422;13.678;2022-12-07T13:42:35;1.73;;;1.05;;
30072;SDS011;16897;52.422;13.678;2022-12-07T13:46:49;1.42;;;1.30;;
30072;SDS011;16897;52.422;13.678;2022-12-07T13:51:18;1.63;;;1.25;;
30072;SDS011;16897;52.422;13.678;2022-12-07T13:55:32;1.23;;;1.10;;
30072;SDS011;16897;52.422;13.678;2022-12-07T13:59:34;1.33;;;1.23;;
30072;SDS011;16897;52.422;13.678;2022-12-07T14:03:38;2.67;;;1.17;;
30072;SDS011;16897;52.422;13.678;2022-12-07T14:08:00;1.23;;;1.00;;
30072;SDS011;16897;52.422;13.678;2022-12-07T14:12:22;1.35;;;1.25;;
30072;SDS011;16897;52.422;13.678;2022-12-07T14:16:30;1.38;;;1.25;;
30072;SDS011;16897;52.422;13.678;2022-12-07T14:20:38;1.90;;;1.20;;
30072;SDS011;16897;52.422;13.678;2022-12-07T14:24:42;2.78;;;1.33;;
30072;SDS011;16897;52.422;13.678;2022-12-07T14:28:44;2.00;;;1.50;;
30072;SDS011;16897;52.422;13.678;2022-12-07T14:32:52;3.60;;;1.85;;
30072;SDS011;16897;52.422;13.678;2022-12-07T14:36:58;1.48;;;1.38;;
30072;SDS011;16897;52.422;13.678;2022-12-07T14:41:00;2.40;;;1.33;;
30072;SDS011;16897;52.422;13.678;2022-12-07T14:45:37;3.38;;;1.42;;
30072;SDS011;16897;52.422;13.678;2022-12-07T14:49:42;1.85;;;1.48;;
30072;SDS011;16897;52.422;13.678;2022-12-07T14:53:46;1.50;;;1.23;;
30072;SDS011;16897;52.422;13.678;2022-12-07T14:57:51;3.22;;;1.65;;
30072;SDS011;16897;52.422;13.678;2022-12-07T15:01:54;3.45;;;1.48;;
30072;SDS011;16897;52.422;13.678;2022-12-07T15:05:56;1.42;;;1.20;;
30072;SDS011;16897;52.422;13.678;2022-12-07T15:09:57;3.25;;;1.67;;
30072;SDS011;16897;52.422;13.678;2022-12-07T15:13:59;3.80;;;1.30;;
30072;SDS011;16897;52.422;13.678;2022-12-07T15:18:11;1.30;;;1.20;;
30072;SDS011;16897;52.422;13.678;2022-12-07T15:22:13;1.48;;;1.08;;
30072;SDS011;16897;52.422;13.678;2022-12-07T15:26:14;1.70;;;1.35;;
30072;SDS011;16897;52.422;13.678;2022-12-07T15:30:16;2.58;;;1.35;;
30072;SDS011;16897;52.422;13.678;2022-12-07T15:34:17;1.20;;;1.10;;
30072;SDS011;16897;52.422;13.678;2022-12-07T15:38:19;1.80;;;1.45;;
30072;SDS011;16897;52.422;13.678;2022-12-07T15:42:21;3.20;;;0.90;;
30072;SDS011;16897;52.422;13.678;2022-12-07T15:46:22;4.07;;;2.33;;
30072;SDS011;16897;52.422;13.678;2022-12-07T15:50:25;3.40;;;1.77;;
30072;SDS011;16897;52.422;13.678;2022-12-07T15:54:27;5.15;;;1.80;;
30072;SDS011;16897;52.422;13.678;2022-12-07T15:58:30;4.13;;;1.38;;
30072;SDS011;16897;52.422;13.678;2022-12-07T16:02:32;3.28;;;1.45;;
30072;SDS011;16897;52.422;13.678;2022-12-07T16:06:33;1.65;;;1.30;;
30072;SDS011;16897;52.422;13.678;2022-12-07T16:10:36;1.75;;;1.40;;
30072;SDS011;16897;52.422;13.678;2022-12-07T16:14:38;4.57;;;1.50;;
30072;SDS011;16897;52.422;13.678;2022-12-07T16:18:41;3.45;;;2.58;;
30072;SDS011;16897;52.422;13.678;2022-12-07T16:22:44;1.97;;;1.80;;
30072;SDS011;16897;52.422;13.678;2022-12-07T16:26:49;1.67;;;1.55;;
30072;SDS011;16897;52.422;13.678;2022-12-07T16:30:59;1.40;;;1.30;;
30072;SDS011;16897;52.422;13.678;2022-12-07T16:35:05;3.83;;;1.45;;
30072;SDS011;16897;52.422;13.678;2022-12-07T16:39:08;2.03;;;1.17;;
30072;SDS011;16897;52.422;13.678;2022-12-07T16:43:10;2.85;;;2.15;;
30072;SDS011;16897;52.422;13.678;2022-12-07T16:47:14;2.40;;;1.40;;
30072;SDS011;16897;52.422;13.678;2022-12-07T16:51:15;2.45;;;1.52;;
30072;SDS011;16897;52.422;13.678;2022-12-07T16:55:17;4.22;;;1.38;;
30072;SDS011;16897;52.422;13.678;2022-12-07T16:59:18;2.05;;;1.40;;
30072;SDS011;16897;52.422;13.678;2022-12-07T17:03:20;2.13;;;1.42;;
30072;SDS011;16897;52.422;13.678;2022-12-07T17:07:22;2.08;;;1.42;;
30072;SDS011;16897;52.422;13.678;2022-12-07T17:11:25;2.15;;;1.40;;
30072;SDS011;16897;52.422;13.678;2022-12-07T17:15:29;1.40;;;1.20;;
30072;SDS011;16897;52.422;13.678;2022-12-07T17:19:31;1.98;;;1.60;;
30072;SDS011;16897;52.422;13.678;2022-12-07T17:23:33;2.10;;;1.90;;
30072;SDS011;16897;52.422;13.678;2022-12-07T17:27:35;1.77;;;1.48;;
30072;SDS011;16897;52.422;13.678;2022-12-07T17:31:38;6.30;;;2.97;;
30072;SDS011;16897;52.422;13.678;2022-12-07T17:35:41;2.47;;;1.55;;
30072;SDS011;16897;52.422;13.678;2022-12-07T17:39:42;2.88;;;1.35;;
30072;SDS011;16897;52.422;13.678;2022-12-07T17:43:44;2.42;;;1.80;;
30072;SDS011;16897;52.422;13.678;2022-12-07T17:47:46;3.00;;;1.42;;
30072;SDS011;16897;52.422;13.678;2022-12-07T17:51:47;1.90;;;1.50;;
30072;SDS011;16897;52.422;13.678;2022-12-07T17:56:08;2.67;;;1.63;;
30072;SDS011;16897;52.422;13.678;2022-12-07T18:00:09;1.48;;;1.38;;
30072;SDS011;16897;52.422;13.678;2022-12-07T18:04:15;2.30;;;1.45;;
30072;SDS011;16897;52.422;13.678;2022-12-07T18:08:16;2.75;;;1.60;;
30072;SDS011;16897;52.422;13.678;2022-12-07T18:12:18;1.73;;;1.38;;
30072;SDS011;16897;52.422;13.678;2022-12-07T18:16:21;2.15;;;1.42;;
30072;SDS011;16897;52.422;13.678;2022-12-07T18:20:25;2.10;;;1.88;;
30072;SDS011;16897;52.422;13.678;2022-12-07T18:24:27;10.00;;;6.00;;
30072;SDS011;16897;52.422;13.678;2022-12-07T18:28:28;5.63;;;3.70;;
30072;SDS011;16897;52.422;13.678;2022-12-07T18:32:30;2.92;;;2.00;;
30072;SDS011;16897;52.422;13.678;2022-12-07T18:36:32;2.47;;;1.80;;
30072;SDS011;16897;52.422;13.678;2022-12-07T18:40:38;2.17;;;1.70;;
30072;SDS011;16897;52.422;13.678;2022-12-07T18:44:40;3.25;;;1.77;;
30072;SDS011;16897;52.422;13.678;2022-12-07T18:48:42;2.10;;;1.70;;
30072;SDS011;16897;52.422;13.678;2022-12-07T18:52:44;1.77;;;1.33;;
30072;SDS011;16897;52.422;13.678;2022-12-07T18:56:46;2.28;;;1.67;;
30072;SDS011;16897;52.422;13.678;2022-12-07T19:00:47;3.50;;;2.40;;
30072;SDS011;16897;52.422;13.678;2022-12-07T19:04:49;2.55;;;2.22;;
30072;SDS011;16897;52.422;13.678;2022-12-07T19:08:51;4.05;;;2.20;;
30072;SDS011;16897;52.422;13.678;2022-12-07T19:12:57;2.97;;;2.10;;
30072;SDS011;16897;52.422;13.678;2022-12-07T19:17:00;1.48;;;1.38;;
30072;SDS011;16897;52.422;13.678;2022-12-07T19:21:05;1.83;;;1.73;;
30072;SDS011;16897;52.422;13.678;2022-12-07T19:25:07;2.55;;;1.90;;
30072;SDS011;16897;52.422;13.678;2022-12-07T19:29:09;2.03;;;1.83;;
30072;SDS011;16897;52.422;13.678;2022-12-07T19:33:11;2.80;;;1.77;;
30072;SDS011;16897;52.422;13.678;2022-12-07T19:37:13;3.83;;;2.20;;
30072;SDS011;16897;52.422;13.678;2022-12-07T19:41:16;6.15;;;2.30;;
30072;SDS011;16897;52.422;13.678;2022-12-07T19:45:39;5.20;;;2.10;;
30072;SDS011;16897;52.422;13.678;2022-12-07T19:49:40;2.13;;;1.92;;
30072;SDS011;16897;52.422;13.678;2022-12-07T19:53:42;2.13;;;1.92;;
30072;SDS011;16897;52.422;13.678;2022-12-07T19:57:44;3.45;;;2.40;;
30072;SDS011;16897;52.422;13.678;2022-12-07T20:01:45;3.67;;;2.30;;
30072;SDS011;16897;52.422;13.678;2022-12-07T20:05:47;3.08;;;2.60;;
30072;SDS011;16897;52.422;13.678;2022-12-07T20:09:49;3.60;;;2.95;;
30072;SDS011;16897;52.422;13.678;2022-12-07T20:13:51;3.38;;;2.42;;
30072;SDS011;16897;52.422;13.678;2022-12-07T20:17:53;3.28;;;2.53;;
30072;SDS011;16897;52.422;13.678;2022-12-07T20:21:55;4.65;;;2.28;;
30072;SDS011;16897;52.422;13.678;2022-12-07T20:26:00;2.50;;;2.30;;
30072;SDS011;16897;52.422;13.678;2022-12-07T20:30:05;3.10;;;2.40;;
30072;SDS011;16897;52.422;13.678;2022-12-07T20:34:08;3.30;;;2.35;;
30072;SDS011;16897;52.422;13.678;2022-12-07T20:38:12;4.72;;;2.33;;
30072;SDS011;16897;52.422;13.678;2022-12-07T20:42:15;3.00;;;2.30;;
30072;SDS011;16897;52.422;13.678;2022-12-07T20:46:36;2.72;;;2.30;;
30072;SDS011;16897;52.422;13.678;2022-12-07T20:50:37;3.22;;;2.17;;
30072;SDS011;16897;52.422;13.678;2022-12-07T20:54:39;2.67;;;2.38;;
30072;SDS011;16897;52.422;13.678;2022-12-07T20:58:41;2.47;;;2.28;;
30072;SDS011;16897;52.422;13.678;2022-12-07T21:02:43;3.00;;;2.13;;
30072;SDS011;16897;52.422;13.678;2022-12-07T21:06:45;2.78;;;2.40;;
30072;SDS011;16897;52.422;13.678;2022-12-07T21:10:47;2.20;;;2.00;;
30072;SDS011;16897;52.422;13.678;2022-12-07T21:14:49;2.00;;;1.90;;
30072;SDS011;16897;52.422;13.678;2022-12-07T21:18:51;2.15;;;1.90;;
30072;SDS011;16897;52.422;13.678;2022-12-07T21:22:55;4.82;;;2.33;;
30072;SDS011;16897;52.422;13.678;2022-12-07T21:26:57;2.17;;;1.92;;
30072;SDS011;16897;52.422;13.678;2022-12-07T21:30:59;2.88;;;2.03;;
30072;SDS011;16897;52.422;13.678;2022-12-07T21:35:01;4.10;;;2.78;;
30072;SDS011;16897;52.422;13.678;2022-12-07T21:39:03;4.85;;;2.45;;
30072;SDS011;16897;52.422;13.678;2022-12-07T21:43:05;2.70;;;2.47;;
30072;SDS011;16897;52.422;13.678;2022-12-07T21:47:07;2.60;;;2.40;;
30072;SDS011;16897;52.422;13.678;2022-12-07T21:51:10;4.88;;;2.40;;
30072;SDS011;16897;52.422;13.678;2022-12-07T21:55:14;5.13;;;2.20;;
30072;SDS011;16897;52.422;13.678;2022-12-07T21:59:16;3.20;;;2.20;;
30072;SDS011;16897;52.422;13.678;2022-12-07T22:03:18;2.70;;;2.10;;
30072;SDS011;16897;52.422;13.678;2022-12-07T22:07:19;2.22;;;2.03;;
30072;SDS011;16897;52.422;13.678;2022-12-07T22:11:21;2.75;;;1.90;;
30072;SDS011;16897;52.422;13.678;2022-12-07T22:15:23;3.97;;;2.30;;
30072;SDS011;16897;52.422;13.678;2022-12-07T22:19:26;2.88;;;1.92;;
30072;SDS011;16897;52.422;13.678;2022-12-07T22:23:30;2.85;;;1.80;;
30072;SDS011;16897;52.422;13.678;2022-12-07T22:27:32;2.43;;;2.13;;
30072;SDS011;16897;52.422;13.678;2022-12-07T22:31:34;2.42;;;2.22;;
30072;SDS011;16897;52.422;13.678;2022-12-07T22:35:37;2.83;;;2.22;;
30072;SDS011;16897;52.422;13.678;2022-12-07T22:39:39;2.28;;;2.08;;
30072;SDS011;16897;52.422;13.678;2022-12-07T22:43:41;2.67;;;1.98;;
30072;SDS011;16897;52.422;13.678;2022-12-07T22:47:42;3.47;;;2.00;;
30072;SDS011;16897;52.422;13.678;2022-12-07T22:51:44;2.42;;;2.22;;
30072;SDS011;16897;52.422;13.678;2022-12-07T22:55:46;1.98;;;1.80;;
30072;SDS011;16897;52.422;13.678;2022-12-07T22:59:48;3.78;;;2.10;;
30072;SDS011;16897;52.422;13.678;2022-12-07T23:03:50;2.72;;;2.15;;
30072;SDS011;16897;52.422;13.678;2022-12-07T23:07:52;2.90;;;2.70;;
30072;SDS011;16897;52.422;13.678;2022-12-07T23:11:54;2.78;;;2.20;;
30072;SDS011;16897;52.422;13.678;2022-12-07T23:16:15;2.70;;;1.98;;
30072;SDS011;16897;52.422;13.678;2022-12-07T23:20:17;2.65;;;1.85;;
30072;SDS011;16897;52.422;13.678;2022-12-07T23:24:19;2.85;;;1.90;;
30072;SDS011;16897;52.422;13.678;2022-12-07T23:28:20;2.65;;;2.00;;
30072;SDS011;16897;52.422;13.678;2022-12-07T23:32:22;2.47;;;2.05;;
30072;SDS011;16897;52.422;13.678;2022-12-07T23:36:24;2.85;;;2.17;;
30072;SDS011;16897;52.422;13.678;2022-12-07T23:40:28;3.92;;;2.45;;
30072;SDS011;16897;52.422;13.678;2022-12-07T23:44:29;2.25;;;2.03;;
30072;SDS011;16897;52.422;13.678;2022-12-07T23:48:31;2.55;;;2.15;;
30072;SDS011;16897;52.422;13.678;2022-12-07T23:52:35;2.80;;;2.58;;
30072;SDS011;16897;52.422;13.678;2022-12-07T23:56:37;4.05;;;2.53;;
